To NAV CANADA Home Page Login to a new session Search on AWWS site Feedback and Comments Disclaimer Vers la page française équivalente Tips FAQ What's new on the site To the Forecasts and Observations / NOTAM section To "File a Flight Plan" website Publications and other links Update of the User's profile FIC Telephone Numbers My Weather Data Folder Route Weather Data Regional Weather Data Local Weather Data To the Forecasts and Observations / NOTAM section
Request Generated 09/28/2016 at 18:43:51 UTC . Weather information available at that time is displayed.

METAR/TAF

MAYO/YT    

METAR CYMA 281800Z 00000KT 20SM FEW055 BKN120 BKN220 M01/M03 A3024
RMK SC1AC4CI1 CLIMAT -0.9/-5.0/0.0MM SLP277=
METAR CYMA 281700Z 00000KT 20SM FEW055 BKN120 M02/M03 A3024 RMK
SC1AC5 SLP277=
METAR CYMA 281600Z 00000KT 20SM FEW055 BKN120 M04/M05 A3023 RMK
SC2AC3 SLP275=

TAF CYMA 281738Z 2818/2906 VRB03KT P6SM FEW050 BKN120
FM282200 26008KT P6SM SCT120
RMK NXT FCST BY 290000Z=
Your time UTC time
Weather data provided by Environment Canada and NAV CANADA